createdAt,value
2023-01-20T00:01:38.534Z,2.03
2023-01-20T00:04:41.450Z,1.98
2023-01-20T00:07:44.753Z,2.09
2023-01-20T00:10:54.514Z,1.93
2023-01-20T00:14:01.177Z,1.94
2023-01-20T00:17:04.267Z,2.09
2023-01-20T00:20:07.594Z,2.14
2023-01-20T00:23:10.781Z,2.06
2023-01-20T00:26:19.115Z,1.97
2023-01-20T00:29:22.116Z,1.86
2023-01-20T00:32:25.102Z,1.83
2023-01-20T00:35:28.091Z,1.72
2023-01-20T00:38:31.151Z,1.72
2023-01-20T00:41:35.370Z,1.76
2023-01-20T00:44:37.891Z,1.77
2023-01-20T00:47:40.782Z,1.72
2023-01-20T00:50:47.890Z,1.72
2023-01-20T00:53:50.868Z,1.78
2023-01-20T00:56:53.689Z,1.83
2023-01-20T00:59:56.685Z,1.88
2023-01-20T01:02:59.339Z,1.90
2023-01-20T01:06:16.904Z,1.89
2023-01-20T01:09:21.734Z,2.01
2023-01-20T01:12:24.690Z,1.99
2023-01-20T01:15:28.109Z,1.97
2023-01-20T01:18:31.038Z,1.94
2023-01-20T01:21:33.937Z,1.79
2023-01-20T01:24:36.883Z,1.66
2023-01-20T01:27:39.460Z,1.72
2023-01-20T01:30:42.357Z,1.52
2023-01-20T01:33:46.507Z,1.57
2023-01-20T01:36:49.379Z,1.51
2023-01-20T01:39:52.047Z,1.38
2023-01-20T01:42:54.972Z,1.38
2023-01-20T01:45:57.977Z,1.34
2023-01-20T01:49:14.347Z,1.46
2023-01-20T01:52:18.710Z,1.57
2023-01-20T01:55:25.283Z,1.52
2023-01-20T01:58:34.744Z,1.59
2023-01-20T02:01:41.158Z,1.68
2023-01-20T02:04:44.867Z,1.62
2023-01-20T02:07:49.132Z,1.80
2023-01-20T02:10:53.086Z,1.68
2023-01-20T02:13:56.357Z,1.75
2023-01-20T02:17:23.918Z,2.16
2023-01-20T02:20:48.740Z,1.60
2023-01-20T02:24:26.455Z,1.52
2023-01-20T02:27:40.695Z,1.61
2023-01-20T02:31:08.208Z,1.61
2023-01-20T02:34:28.761Z,1.69
2023-01-20T02:38:13.740Z,1.47
2023-01-20T02:41:54.052Z,1.51
2023-01-20T02:45:23.372Z,1.54
2023-01-20T02:48:26.301Z,1.63
2023-01-20T02:51:55.271Z,1.63
2023-01-20T02:55:08.387Z,1.57
2023-01-20T02:58:18.175Z,1.56
2023-01-20T03:01:28.313Z,1.59
2023-01-20T03:04:36.297Z,1.69
2023-01-20T03:07:41.740Z,1.68
2023-01-20T03:10:50.223Z,1.73
2023-01-20T03:14:02.564Z,1.79
2023-01-20T03:17:05.233Z,1.87
2023-01-20T03:20:09.140Z,1.77
2023-01-20T03:23:12.127Z,1.73
2023-01-20T03:26:17.161Z,1.65
2023-01-20T03:29:21.079Z,1.86
2023-01-20T03:32:26.879Z,1.70
2023-01-20T03:35:29.690Z,1.69
2023-01-20T03:38:32.723Z,1.65
2023-01-20T03:41:54.444Z,1.77
2023-01-20T03:45:11.445Z,1.96
2023-01-20T03:48:28.800Z,2.08
2023-01-20T03:52:00.960Z,2.07
2023-01-20T03:55:14.540Z,2.07
2023-01-20T03:58:41.601Z,2.14
2023-01-20T04:01:49.013Z,2.11
2023-01-20T04:04:54.041Z,1.98
2023-01-20T04:08:00.066Z,1.91
2023-01-20T04:11:07.821Z,1.90
2023-01-20T04:14:10.920Z,1.89
2023-01-20T04:17:14.333Z,1.83
2023-01-20T04:20:17.454Z,1.92
2023-01-20T04:23:27.111Z,2.08
2023-01-20T04:26:29.587Z,2.13
2023-01-20T04:29:32.659Z,2.15
2023-01-20T04:32:35.381Z,1.87
2023-01-20T04:35:41.283Z,1.94
2023-01-20T04:38:44.486Z,1.95
2023-01-20T04:41:51.169Z,1.99
2023-01-20T04:44:53.735Z,2.27
2023-01-20T04:47:59.490Z,2.10
2023-01-20T04:51:09.750Z,2.09
2023-01-20T04:54:12.925Z,2.03
2023-01-20T04:57:15.806Z,1.95
2023-01-20T05:00:20.623Z,2.04
2023-01-20T05:03:23.382Z,2.03
2023-01-20T05:06:26.366Z,1.85
2023-01-20T05:09:29.510Z,2.12
2023-01-20T05:12:32.955Z,2.05
2023-01-20T05:15:39.169Z,2.08
2023-01-20T05:18:42.748Z,2.11
2023-01-20T05:21:46.121Z,2.18
2023-01-20T05:24:50.219Z,2.30
2023-01-20T05:27:52.759Z,2.15
2023-01-20T05:30:55.790Z,2.15
2023-01-20T05:33:59.135Z,2.29
2023-01-20T05:37:02.330Z,2.41
2023-01-20T05:40:05.740Z,2.40
2023-01-20T05:43:11.140Z,2.39
2023-01-20T05:46:15.727Z,2.52
2023-01-20T05:49:20.269Z,2.25
2023-01-20T05:52:23.043Z,2.13
2023-01-20T05:55:26.120Z,2.34
2023-01-20T05:58:29.644Z,2.25
2023-01-20T06:01:32.678Z,2.29
2023-01-20T06:04:36.035Z,2.34
2023-01-20T06:07:39.104Z,2.39
2023-01-20T06:10:53.838Z,2.30
2023-01-20T06:13:56.557Z,2.28
2023-01-20T06:16:59.664Z,2.32
2023-01-20T06:20:04.490Z,2.36
2023-01-20T06:23:10.051Z,2.33
2023-01-20T06:26:15.733Z,2.43
2023-01-20T06:29:18.931Z,2.53
2023-01-20T06:32:21.592Z,2.54
2023-01-20T06:35:25.007Z,2.51
2023-01-20T06:38:33.170Z,2.49
2023-01-20T06:41:36.156Z,2.58
2023-01-20T06:44:38.742Z,2.68
2023-01-20T06:47:41.824Z,2.66
2023-01-20T06:50:44.404Z,2.29
2023-01-20T06:53:47.936Z,2.55
2023-01-20T06:56:50.526Z,2.48
2023-01-20T06:59:53.571Z,2.43
2023-01-20T07:02:57.669Z,2.38
2023-01-20T07:06:04.404Z,2.51
2023-01-20T07:09:10.798Z,2.69
2023-01-20T07:12:16.539Z,2.85
2023-01-20T07:15:19.217Z,2.68
2023-01-20T07:18:22.209Z,2.89
2023-01-20T07:21:26.563Z,2.97
2023-01-20T07:24:30.439Z,3.06
2023-01-20T07:27:35.503Z,2.98
2023-01-20T07:30:38.913Z,3.01
2023-01-20T07:33:41.832Z,3.07
2023-01-20T07:36:44.774Z,3.04
2023-01-20T07:39:47.743Z,3.04
2023-01-20T07:42:53.613Z,2.86
2023-01-20T07:45:59.760Z,2.99
2023-01-20T07:49:03.907Z,2.86
2023-01-20T07:52:06.777Z,2.92
2023-01-20T07:55:10.071Z,2.94
2023-01-20T07:58:16.032Z,2.89
2023-01-20T08:01:25.448Z,3.01
2023-01-20T08:04:30.232Z,3.13
2023-01-20T08:07:34.209Z,3.10
2023-01-20T08:10:41.737Z,3.12
2023-01-20T08:13:52.505Z,3.07
2023-01-20T08:16:57.299Z,3.03
2023-01-20T08:20:02.139Z,3.09
2023-01-20T08:23:05.458Z,3.00
2023-01-20T08:26:08.274Z,3.07
2023-01-20T08:29:12.646Z,3.11
2023-01-20T08:32:17.889Z,3.08
2023-01-20T08:35:21.198Z,3.17
2023-01-20T08:38:25.521Z,3.17
2023-01-20T08:41:32.515Z,3.15
2023-01-20T08:44:35.595Z,3.49
2023-01-20T08:47:46.005Z,3.57
2023-01-20T08:50:49.034Z,3.32
2023-01-20T08:53:53.394Z,3.46
2023-01-20T08:56:56.411Z,3.64
2023-01-20T08:59:59.656Z,3.24
2023-01-20T09:03:02.393Z,3.22
2023-01-20T09:06:06.968Z,3.21
2023-01-20T09:09:10.997Z,3.15
2023-01-20T09:12:14.550Z,3.18
2023-01-20T09:15:20.645Z,3.21
2023-01-20T09:18:23.835Z,3.19
2023-01-20T09:21:29.554Z,3.30
2023-01-20T09:24:33.779Z,3.34
2023-01-20T09:27:36.744Z,3.53
2023-01-20T09:30:39.903Z,3.60
2023-01-20T09:33:43.565Z,3.47
2023-01-20T09:36:50.854Z,3.46
2023-01-20T09:40:22.395Z,3.56
2023-01-20T09:44:00.678Z,3.43
2023-01-20T09:47:32.036Z,3.48
2023-01-20T09:51:14.400Z,3.55
2023-01-20T09:54:25.077Z,3.43
2023-01-20T09:57:33.773Z,3.43
2023-01-20T10:00:39.827Z,3.33
2023-01-20T10:03:51.422Z,3.53
2023-01-20T10:06:59.975Z,3.70
2023-01-20T10:10:21.939Z,3.53
2023-01-20T10:13:34.800Z,3.48
2023-01-20T10:16:48.744Z,3.63
2023-01-20T10:20:13.896Z,3.63
2023-01-20T10:23:48.560Z,3.73
2023-01-20T10:26:57.815Z,3.61
2023-01-20T10:30:12.671Z,3.66
2023-01-20T10:33:40.574Z,3.86
2023-01-20T10:36:50.515Z,3.67
2023-01-20T10:40:34.126Z,3.90
2023-01-20T10:43:38.402Z,3.86
2023-01-20T10:47:02.838Z,3.90
2023-01-20T10:50:38.800Z,4.06
2023-01-20T10:54:02.454Z,4.07
2023-01-20T10:57:12.757Z,4.18
2023-01-20T11:00:25.592Z,4.10
2023-01-20T11:03:35.204Z,4.23
2023-01-20T11:06:39.352Z,4.08
2023-01-20T11:09:43.866Z,4.09
2023-01-20T11:12:51.790Z,4.01
2023-01-20T11:15:59.963Z,3.92
2023-01-20T11:19:07.760Z,3.95
2023-01-20T11:22:13.373Z,3.80
2023-01-20T11:25:30.779Z,3.74
2023-01-20T11:28:45.718Z,3.72
2023-01-20T11:31:54.466Z,3.59
2023-01-20T11:35:05.094Z,3.55
2023-01-20T11:38:25.613Z,3.41
2023-01-20T11:41:30.981Z,3.47
2023-01-20T11:44:33.536Z,3.49
2023-01-20T11:47:37.606Z,3.28
2023-01-20T11:50:50.785Z,3.09
2023-01-20T11:54:08.848Z,3.17
2023-01-20T11:57:24.125Z,3.15
2023-01-20T12:00:41.534Z,3.09
2023-01-20T12:04:14.463Z,2.91
2023-01-20T12:07:32.237Z,3.01
2023-01-20T12:10:37.320Z,2.92
2023-01-20T12:14:08.119Z,2.85
2023-01-20T12:17:50.158Z,2.87
2023-01-20T12:21:09.603Z,2.76
2023-01-20T12:24:38.560Z,2.93
2023-01-20T12:27:56.744Z,2.81
2023-01-20T12:31:04.027Z,2.81
2023-01-20T12:34:13.667Z,2.80
2023-01-20T12:37:52.003Z,2.76
2023-01-20T12:41:03.871Z,2.71
2023-01-20T12:44:30.802Z,2.73
2023-01-20T12:48:06.901Z,2.70
2023-01-20T12:52:00.161Z,2.73
2023-01-20T12:55:34.624Z,2.87
2023-01-20T12:58:52.783Z,2.79
2023-01-20T13:02:20.880Z,2.74
2023-01-20T13:06:01.340Z,2.73
2023-01-20T13:09:22.380Z,2.82
2023-01-20T13:12:40.514Z,2.57
2023-01-20T13:15:49.002Z,2.60
2023-01-20T13:18:54.965Z,2.71
2023-01-20T13:22:11.493Z,2.75
2023-01-20T13:25:17.443Z,2.88
2023-01-20T13:28:25.835Z,2.63
2023-01-20T13:31:36.587Z,2.79
2023-01-20T13:34:40.196Z,2.82
2023-01-20T13:38:01.091Z,2.76
2023-01-20T13:41:06.100Z,2.63
2023-01-20T13:44:36.565Z,2.74
2023-01-20T13:47:48.429Z,2.59
2023-01-20T13:51:33.842Z,2.68
2023-01-20T13:54:44.984Z,2.69
2023-01-20T13:57:47.969Z,2.65
2023-01-20T14:01:03.326Z,2.48
2023-01-20T14:04:17.303Z,2.53
2023-01-20T14:07:23.134Z,2.60
2023-01-20T14:10:26.917Z,2.50
2023-01-20T14:13:30.407Z,2.37
2023-01-20T14:16:39.658Z,3.09
2023-01-20T14:19:48.172Z,2.33
2023-01-20T14:22:55.412Z,2.45
2023-01-20T14:26:05.293Z,2.43
2023-01-20T14:29:20.304Z,2.28
2023-01-20T14:32:37.980Z,2.28
2023-01-20T14:35:44.951Z,2.21
2023-01-20T14:38:58.438Z,2.26
2023-01-20T14:42:02.996Z,1.98
2023-01-20T14:45:20.758Z,1.93
2023-01-20T14:48:34.450Z,1.96
2023-01-20T14:51:37.992Z,1.98
2023-01-20T14:54:46.062Z,1.48
2023-01-20T14:57:48.704Z,1.47
2023-01-20T15:00:55.738Z,1.61
2023-01-20T15:04:02.555Z,1.81
2023-01-20T15:07:06.037Z,1.65
2023-01-20T15:10:16.028Z,1.62
2023-01-20T15:13:31.351Z,1.64
2023-01-20T15:16:37.134Z,1.52
2023-01-20T15:19:46.160Z,1.94
2023-01-20T15:22:51.330Z,1.55
2023-01-20T15:25:54.415Z,1.37
2023-01-20T15:29:00.365Z,1.30
2023-01-20T15:32:14.362Z,1.31
2023-01-20T15:35:22.259Z,1.20
2023-01-20T15:38:30.592Z,1.19
2023-01-20T15:41:38.008Z,1.21
2023-01-20T15:44:47.682Z,1.19
2023-01-20T15:48:05.580Z,1.40
2023-01-20T15:51:49.698Z,1.29
2023-01-20T15:55:23.867Z,1.20
2023-01-20T15:58:58.529Z,1.10
2023-01-20T16:06:52.431Z,1.49
2023-01-20T16:09:55.099Z,1.37
2023-01-20T16:12:58.223Z,1.37
2023-01-20T16:16:09.718Z,1.30
2023-01-20T16:19:30.393Z,1.22
2023-01-20T16:30:25.675Z,1.33
2023-01-20T16:33:28.665Z,1.22
2023-01-20T16:36:31.534Z,1.15
2023-01-20T16:47:09.011Z,1.10
2023-01-20T16:50:18.183Z,0.92
2023-01-20T16:53:28.027Z,0.96
2023-01-20T17:12:05.575Z,0.82
2023-01-20T17:15:08.830Z,0.78
2023-01-20T17:18:12.909Z,0.87
2023-01-20T17:21:17.004Z,0.88
2023-01-20T17:24:19.894Z,0.87
2023-01-20T17:27:22.764Z,1.25
2023-01-20T17:30:26.568Z,0.93
2023-01-20T17:33:30.200Z,0.87
2023-01-20T17:36:35.843Z,0.79
2023-01-20T17:39:39.783Z,0.73
2023-01-20T17:42:44.149Z,1.53
2023-01-20T17:45:47.318Z,1.12
2023-01-20T17:48:50.717Z,0.98
2023-01-20T17:51:53.792Z,0.89
2023-01-20T17:54:56.933Z,0.93
2023-01-20T17:58:31.516Z,0.82
2023-01-20T18:01:34.708Z,0.76
2023-01-20T18:04:38.080Z,0.74
2023-01-20T18:07:40.860Z,0.86
2023-01-20T18:10:43.982Z,0.85
2023-01-20T18:13:52.297Z,0.94
2023-01-20T18:16:56.016Z,0.86
2023-01-20T18:19:58.771Z,0.78
2023-01-20T18:23:02.168Z,0.94
2023-01-20T18:26:05.707Z,0.92
2023-01-20T18:29:14.472Z,0.90
2023-01-20T18:32:17.289Z,1.00
2023-01-20T18:35:22.778Z,0.95
2023-01-20T18:38:25.494Z,0.93
2023-01-20T18:41:30.629Z,0.75
2023-01-20T18:44:33.245Z,0.92
2023-01-20T18:47:36.403Z,0.94
2023-01-20T18:50:39.513Z,1.03
2023-01-20T18:53:44.045Z,0.94
2023-01-20T18:56:47.196Z,1.01
2023-01-20T18:59:50.748Z,1.08
2023-01-20T19:02:55.661Z,1.16
2023-01-20T19:06:13.768Z,1.18
2023-01-20T19:09:17.951Z,1.23
2023-01-20T19:12:22.380Z,1.20
2023-01-20T19:15:27.511Z,2.26
2023-01-20T19:18:31.245Z,1.63
2023-01-20T19:21:36.218Z,1.48
2023-01-20T19:24:39.486Z,1.39
2023-01-20T19:27:44.843Z,1.35
2023-01-20T19:30:51.294Z,1.37
2023-01-20T19:33:54.218Z,1.31
2023-01-20T19:36:57.837Z,1.30
2023-01-20T19:40:01.060Z,1.32
2023-01-20T19:43:04.254Z,1.34
2023-01-20T19:46:09.892Z,1.65
2023-01-20T19:49:13.387Z,1.51
2023-01-20T19:52:16.406Z,1.61
2023-01-20T19:55:19.433Z,1.36
2023-01-20T19:58:24.474Z,1.52
2023-01-20T20:01:35.826Z,1.50
2023-01-20T20:04:39.039Z,1.44
2023-01-20T20:07:43.848Z,1.45
2023-01-20T20:10:51.006Z,1.60
2023-01-20T20:13:59.669Z,1.53
2023-01-20T20:17:03.792Z,1.49
2023-01-20T20:20:07.897Z,1.45
2023-01-20T20:23:11.256Z,2.40
2023-01-20T20:26:14.307Z,1.73
2023-01-20T20:29:19.017Z,1.50
2023-01-20T20:32:22.799Z,1.53
2023-01-20T20:35:25.816Z,1.51
2023-01-20T20:38:29.758Z,1.41
2023-01-20T20:41:35.329Z,1.43
2023-01-20T20:44:38.369Z,1.35
2023-01-20T20:47:41.472Z,1.48
2023-01-20T20:50:44.710Z,1.46
2023-01-20T20:53:47.895Z,1.57
2023-01-20T20:56:50.935Z,1.32
2023-01-20T21:00:16.900Z,1.22
2023-01-20T21:03:23.351Z,1.17
2023-01-20T21:06:29.152Z,1.32
2023-01-20T21:09:31.861Z,1.38
2023-01-20T21:12:34.764Z,1.35
2023-01-20T21:15:38.495Z,1.40
2023-01-20T21:18:41.847Z,1.43
2023-01-20T21:21:46.185Z,1.40
2023-01-20T21:24:50.148Z,1.66
2023-01-20T21:27:53.090Z,1.49
2023-01-20T21:30:57.075Z,1.57
2023-01-20T21:34:00.859Z,1.56
2023-01-20T21:37:04.744Z,1.50
2023-01-20T21:40:08.079Z,1.47
2023-01-20T21:43:29.858Z,1.58
2023-01-20T21:46:39.298Z,1.59
2023-01-20T21:50:01.612Z,1.57
2023-01-20T21:53:05.619Z,1.70
2023-01-20T21:56:08.448Z,1.63
2023-01-20T21:59:11.912Z,1.64
2023-01-20T22:02:15.483Z,1.58
2023-01-20T22:05:18.622Z,1.50
2023-01-20T22:08:21.400Z,1.48
2023-01-20T22:11:28.303Z,1.43
2023-01-20T22:14:32.356Z,1.57
2023-01-20T22:17:35.310Z,1.61
2023-01-20T22:20:41.494Z,1.69
2023-01-20T22:23:44.540Z,1.64
2023-01-20T22:26:48.444Z,1.60
2023-01-20T22:29:53.971Z,1.66
2023-01-20T22:32:56.555Z,1.59
2023-01-20T22:36:00.599Z,1.58
2023-01-20T22:39:06.197Z,1.49
2023-01-20T22:42:10.436Z,1.44
2023-01-20T22:45:13.085Z,1.46
2023-01-20T22:48:16.027Z,1.66
2023-01-20T22:51:21.736Z,1.60
2023-01-20T22:54:24.967Z,1.38
2023-01-20T22:57:30.526Z,1.43
2023-01-20T23:00:33.592Z,1.26
2023-01-20T23:03:36.295Z,1.27
2023-01-20T23:06:39.427Z,1.36
2023-01-20T23:09:42.402Z,1.43
2023-01-20T23:12:45.591Z,1.43
2023-01-20T23:15:49.877Z,1.44
2023-01-20T23:18:53.097Z,1.28
2023-01-20T23:21:56.115Z,1.24
2023-01-20T23:24:58.945Z,1.34
2023-01-20T23:28:01.577Z,1.38
2023-01-20T23:31:07.508Z,1.49
2023-01-20T23:34:10.166Z,1.42
2023-01-20T23:37:13.982Z,1.56
2023-01-20T23:40:19.251Z,1.45
2023-01-20T23:43:22.181Z,1.46
2023-01-20T23:46:27.783Z,1.58
2023-01-20T23:49:30.652Z,1.50
2023-01-20T23:52:33.252Z,1.53
2023-01-20T23:55:37.196Z,1.66
2023-01-20T23:58:40.943Z,1.54
